Time;durP1;ratioP1;P1;durP2;ratioP2;P2;SDS_P1;SDS_P2;PMS_P1;PMS_P2;Temp;Humidity;BMP_temperature;BMP_pressure;BME280_temperature;BME280_humidity;BME280_pressure;Samples;Min_cycle;Max_cycle;Signal;HPM_P1;HPM_P2
2023/10/28 00:00:50;;;;;;;18.63;3.45;;;17.50;99.90;;;;;;5033127;28;20342;-82
2023/10/28 00:03:16;;;;;;;19.08;3.72;;;17.50;99.90;;;;;;5032686;28;20070;-80
2023/10/28 00:05:42;;;;;;;16.90;3.35;;;17.40;99.90;;;;;;5033112;28;20168;-84
2023/10/28 00:08:08;;;;;;;14.82;3.28;;;17.50;99.90;;;;;;5032802;28;20085;-83
2023/10/28 00:10:35;;;;;;;13.55;2.72;;;17.50;99.90;;;;;;5032880;28;20377;-83
2023/10/28 00:13:02;;;;;;;19.00;3.05;;;17.50;99.90;;;;;;5033218;28;20112;-82
2023/10/28 00:15:28;;;;;;;18.77;3.05;;;17.50;99.90;;;;;;5033037;28;20167;-84
2023/10/28 00:17:54;;;;;;;16.17;3.10;;;17.50;99.90;;;;;;5032955;28;20107;-84
2023/10/28 00:20:21;;;;;;;15.05;2.85;;;17.60;99.90;;;;;;5033081;28;20093;-83
2023/10/28 00:22:53;;;;;;;11.00;2.33;;;17.50;99.90;;;;;;5032935;28;20049;-84
2023/10/28 00:25:25;;;;;;;22.10;2.92;;;17.60;99.90;;;;;;5033084;28;20032;-83
2023/10/28 00:27:54;;;;;;;19.65;2.45;;;17.60;99.90;;;;;;5032941;28;20018;-83
2023/10/28 00:30:24;;;;;;;16.48;2.90;;;17.50;99.90;;;;;;5032273;28;20458;-84
2023/10/28 00:32:53;;;;;;;16.80;2.83;;;17.50;99.90;;;;;;5032758;28;20041;-83
2023/10/28 00:35:23;;;;;;;16.27;3.58;;;17.60;99.90;;;;;;5032439;28;20029;-84
2023/10/28 00:37:49;;;;;;;14.60;2.20;;;17.60;99.90;;;;;;5032657;28;20055;-84
2023/10/28 00:40:15;;;;;;;22.98;3.70;;;17.60;99.90;;;;;;5032737;28;20009;-84
2023/10/28 00:42:41;;;;;;;14.05;2.15;;;17.60;99.90;;;;;;5032420;28;20033;-82
2023/10/28 00:45:11;;;;;;;16.73;2.75;;;17.60;99.90;;;;;;5032787;28;20097;-82
2023/10/28 00:47:45;;;;;;;18.35;2.95;;;17.50;99.90;;;;;;5032616;28;20026;-81
2023/10/28 00:50:15;;;;;;;23.15;2.92;;;17.50;99.90;;;;;;5032511;28;20021;-82
2023/10/28 00:52:50;;;;;;;18.73;2.88;;;17.60;99.90;;;;;;5032649;28;20105;-84
2023/10/28 00:55:18;;;;;;;17.80;2.40;;;17.50;99.90;;;;;;5032652;28;20369;-84
2023/10/28 00:57:44;;;;;;;23.00;3.03;;;17.50;99.90;;;;;;5031568;28;20030;-84
2023/10/28 01:00:14;;;;;;;17.25;3.22;;;17.50;99.90;;;;;;5029987;28;20032;-84
2023/10/28 01:02:42;;;;;;;20.00;3.17;;;17.50;99.90;;;;;;5029961;28;20025;-83
2023/10/28 01:05:13;;;;;;;16.10;3.45;;;17.50;99.90;;;;;;5034720;28;20450;-83
2023/10/28 01:07:45;;;;;;;15.95;3.08;;;17.50;99.90;;;;;;5036441;28;20053;-84
2023/10/28 01:10:11;;;;;;;16.85;3.65;;;17.40;99.90;;;;;;5036154;28;20088;-84
2023/10/28 01:12:38;;;;;;;18.13;2.28;;;17.40;99.90;;;;;;5035953;28;20018;-83
2023/10/28 01:15:05;;;;;;;16.42;2.67;;;17.40;99.90;;;;;;5036090;28;20030;-81
2023/10/28 01:17:31;;;;;;;15.95;2.65;;;17.40;99.90;;;;;;5035958;28;20025;-84
2023/10/28 01:19:57;;;;;;;16.98;2.83;;;17.30;99.90;;;;;;5036200;28;20026;-84
2023/10/28 01:22:26;;;;;;;17.95;3.15;;;17.30;99.90;;;;;;5035899;28;20409;-84
2023/10/28 01:24:52;;;;;;;17.67;2.55;;;17.30;99.90;;;;;;5036122;28;20025;-84
2023/10/28 01:27:21;;;;;;;14.63;2.83;;;17.30;99.90;;;;;;5036109;28;20064;-83
2023/10/28 01:29:47;;;;;;;13.43;3.30;;;17.30;99.90;;;;;;5035650;28;20080;-83
2023/10/28 01:32:16;;;;;;;18.88;2.70;;;17.30;99.90;;;;;;5034333;28;20029;-82
2023/10/28 01:34:51;;;;;;;16.88;2.97;;;17.30;99.90;;;;;;5049570;28;20083;-84
2023/10/28 01:37:21;;;;;;;21.63;3.25;;;17.30;99.90;;;;;;5055368;28;20041;-84
2023/10/28 01:39:50;;;;;;;15.63;2.50;;;17.30;99.90;;;;;;5055630;28;20013;-78
2023/10/28 01:42:20;;;;;;;19.17;2.78;;;17.30;99.90;;;;;;5037648;28;20037;-80
2023/10/28 01:44:49;;;;;;;11.18;2.55;;;17.30;99.90;;;;;;5055118;28;20017;-84
2023/10/28 01:47:15;;;;;;;17.23;3.45;;;17.30;99.90;;;;;;5055158;28;20060;-85
2023/10/28 01:49:42;;;;;;;12.00;2.60;;;17.30;99.90;;;;;;5055410;28;20014;-83
2023/10/28 01:52:11;;;;;;;19.25;2.83;;;17.30;99.90;;;;;;5055446;28;20358;-84
2023/10/28 01:54:39;;;;;;;14.40;2.85;;;17.30;99.90;;;;;;5055308;28;20436;-84
2023/10/28 01:57:07;;;;;;;11.75;2.65;;;17.20;99.90;;;;;;5055282;28;20397;-84
2023/10/28 01:59:34;;;;;;;17.35;2.65;;;17.20;99.90;;;;;;5055250;28;20352;-80
2023/10/28 02:02:02;;;;;;;11.30;2.42;;;17.30;99.90;;;;;;5055440;28;20056;-80
2023/10/28 02:04:30;;;;;;;16.60;2.70;;;17.30;99.90;;;;;;5055226;28;20021;-84
2023/10/28 02:06:56;;;;;;;24.45;4.20;;;17.20;99.90;;;;;;5055128;28;20413;-83
2023/10/28 02:09:21;;;;;;;19.88;3.03;;;17.30;99.90;;;;;;5055067;28;20053;-84
2023/10/28 02:11:49;;;;;;;17.42;3.00;;;17.30;99.90;;;;;;5055003;28;20017;-84
2023/10/28 02:14:15;;;;;;;15.02;2.63;;;17.30;99.90;;;;;;5054833;28;20427;-80
2023/10/28 02:16:47;;;;;;;14.40;2.80;;;17.30;99.90;;;;;;5053699;28;20118;-85
2023/10/28 02:19:14;;;;;;;21.15;2.72;;;17.30;99.90;;;;;;5054924;28;20028;-82
2023/10/28 02:21:44;;;;;;;16.08;2.95;;;17.30;99.90;;;;;;5054861;28;20053;-84
2023/10/28 02:24:10;;;;;;;11.75;2.40;;;17.30;99.90;;;;;;5054840;28;20013;-82
2023/10/28 02:26:35;;;;;;;16.27;3.03;;;17.30;99.90;;;;;;5054311;28;20032;-82
2023/10/28 02:29:04;;;;;;;11.75;2.70;;;17.30;99.90;;;;;;5054850;28;20033;-83
2023/10/28 02:31:35;;;;;;;9.63;2.03;;;17.20;99.90;;;;;;5054577;28;20029;-83
2023/10/28 02:34:01;;;;;;;12.38;2.28;;;17.20;99.90;;;;;;5054579;28;20444;-84
2023/10/28 02:36:27;;;;;;;11.35;1.92;;;17.20;99.90;;;;;;5054660;28;20017;-80
2023/10/28 02:38:53;;;;;;;12.82;1.83;;;17.20;99.90;;;;;;5036598;28;20033;-84
2023/10/28 02:41:22;;;;;;;14.18;2.20;;;17.20;99.90;;;;;;5054434;28;20107;-82
2023/10/28 02:43:47;;;;;;;12.80;2.03;;;17.20;99.90;;;;;;5054591;28;20025;-83
2023/10/28 02:46:24;;;;;;;11.23;2.45;;;17.20;99.90;;;;;;5054528;28;20477;-84
2023/10/28 02:48:52;;;;;;;8.65;1.88;;;17.20;99.90;;;;;;5054287;28;20035;-84
2023/10/28 02:51:18;;;;;;;7.80;1.90;;;17.20;99.90;;;;;;5054106;28;20385;-85
2023/10/28 02:53:44;;;;;;;8.65;1.55;;;17.20;99.90;;;;;;5054513;28;20029;-82
2023/10/28 02:56:10;;;;;;;6.35;1.40;;;17.20;99.90;;;;;;5054145;28;20021;-84
2023/10/28 02:58:39;;;;;;;13.82;1.80;;;17.20;99.90;;;;;;5054380;28;20033;-84
2023/10/28 03:01:10;;;;;;;20.13;2.08;;;17.20;99.90;;;;;;5053929;28;20021;-81
2023/10/28 03:03:37;;;;;;;10.32;1.65;;;17.10;99.90;;;;;;5053888;28;20029;-83
2023/10/28 03:06:03;;;;;;;10.85;2.20;;;17.10;99.90;;;;;;5052976;28;20033;-83
2023/10/28 03:08:29;;;;;;;8.40;1.70;;;17.10;99.90;;;;;;5053968;28;20051;-84
2023/10/28 03:10:55;;;;;;;9.02;2.13;;;17.10;99.90;;;;;;5053744;28;20021;-81
2023/10/28 03:13:21;;;;;;;8.00;1.70;;;17.10;99.90;;;;;;5053840;28;20032;-82
2023/10/28 03:15:47;;;;;;;15.38;2.00;;;17.10;99.90;;;;;;5053454;28;20043;-80
2023/10/28 03:18:13;;;;;;;11.35;2.00;;;17.10;99.90;;;;;;5053673;28;20029;-83
2023/10/28 03:20:39;;;;;;;12.00;2.65;;;17.10;99.90;;;;;;5054007;28;20021;-84
2023/10/28 03:23:05;;;;;;;8.18;2.03;;;17.00;99.90;;;;;;5054071;28;20029;-83
2023/10/28 03:25:32;;;;;;;9.43;1.90;;;17.00;99.90;;;;;;5053680;28;20079;-83
2023/10/28 03:28:01;;;;;;;10.95;1.88;;;17.00;99.90;;;;;;5053375;28;20278;-80
2023/10/28 03:30:27;;;;;;;14.65;1.90;;;17.00;99.90;;;;;;5055973;28;20020;-84
2023/10/28 03:32:53;;;;;;;10.80;2.33;;;17.00;99.90;;;;;;5057143;28;20037;-82
2023/10/28 03:35:19;;;;;;;12.57;3.45;;;17.00;99.90;;;;;;5057393;28;20028;-84
2023/10/28 03:37:45;;;;;;;19.50;3.63;;;17.00;99.90;;;;;;5053784;28;20389;-84
2023/10/28 03:40:12;;;;;;;11.10;2.63;;;17.00;99.90;;;;;;5053431;28;20032;-83
2023/10/28 03:42:37;;;;;;;16.05;9.63;;;16.90;99.90;;;;;;5053861;28;20021;-81
2023/10/28 03:45:07;;;;;;;17.88;11.00;;;17.00;99.90;;;;;;5053553;28;20035;-83
2023/10/28 03:47:38;;;;;;;16.73;3.78;;;17.00;99.90;;;;;;5053352;28;20060;-83
2023/10/28 03:50:05;;;;;;;12.37;2.27;;;16.90;99.90;;;;;;5053692;28;20025;-82
2023/10/28 03:52:31;;;;;;;17.10;9.23;;;16.90;99.90;;;;;;5053543;28;20095;-84
2023/10/28 03:54:57;;;;;;;24.42;16.58;;;16.90;99.90;;;;;;5053600;28;20124;-82
2023/10/28 03:57:23;;;;;;;17.70;4.60;;;16.90;99.90;;;;;;5058729;28;20029;-81
2023/10/28 03:59:49;;;;;;;12.52;2.58;;;16.90;99.90;;;;;;5056990;28;20029;-82
2023/10/28 04:02:17;;;;;;;10.50;2.58;;;16.90;99.90;;;;;;5062995;28;20021;-85
2023/10/28 04:04:46;;;;;;;13.15;2.45;;;16.90;99.90;;;;;;5053186;28;21085;-82
2023/10/28 04:07:12;;;;;;;10.13;2.55;;;16.90;99.90;;;;;;5053222;28;20029;-84
2023/10/28 04:09:38;;;;;;;16.63;3.22;;;16.90;99.90;;;;;;5053234;28;20028;-84
2023/10/28 04:12:08;;;;;;;13.98;2.63;;;16.90;99.90;;;;;;5053249;28;20029;-82
2023/10/28 04:14:35;;;;;;;12.40;2.97;;;16.90;99.90;;;;;;5052999;28;20062;-83
2023/10/28 04:17:04;;;;;;;13.20;2.33;;;16.90;99.90;;;;;;5053176;28;20503;-83
2023/10/28 04:19:30;;;;;;;13.65;2.45;;;16.90;99.90;;;;;;5053172;28;20045;-84
2023/10/28 04:21:56;;;;;;;12.18;2.45;;;16.90;99.90;;;;;;5052906;28;20397;-85
2023/10/28 04:24:25;;;;;;;11.15;2.20;;;16.90;99.90;;;;;;5052809;28;20031;-83
2023/10/28 04:26:51;;;;;;;10.88;2.53;;;16.90;99.90;;;;;;5034644;28;20373;-81
2023/10/28 04:29:17;;;;;;;12.10;1.88;;;16.80;99.90;;;;;;5034802;28;20028;-80
2023/10/28 04:31:43;;;;;;;12.48;2.15;;;16.90;99.90;;;;;;5053045;28;20165;-82
2023/10/28 04:34:09;;;;;;;11.50;2.20;;;16.90;99.90;;;;;;5052340;28;20051;-79
2023/10/28 04:36:35;;;;;;;16.55;3.38;;;16.90;99.90;;;;;;5052381;28;20477;-74
2023/10/28 04:39:01;;;;;;;17.50;2.10;;;16.80;99.90;;;;;;5054376;28;20029;-73
2023/10/28 04:41:28;;;;;;;15.70;2.40;;;16.80;99.90;;;;;;5056928;28;20370;-73
2023/10/28 04:43:54;;;;;;;11.02;2.25;;;16.80;99.90;;;;;;5056758;28;20021;-73
2023/10/28 04:46:22;;;;;;;15.77;2.72;;;16.80;99.90;;;;;;5056604;28;20043;-74
2023/10/28 04:48:49;;;;;;;16.40;2.90;;;16.80;99.90;;;;;;5056743;28;20031;-74
2023/10/28 04:51:15;;;;;;;19.45;2.85;;;16.80;99.90;;;;;;5056356;28;20017;-73
2023/10/28 04:53:45;;;;;;;15.10;2.75;;;16.80;99.90;;;;;;5056500;28;20036;-73
2023/10/28 04:56:19;;;;;;;16.27;2.88;;;16.90;99.90;;;;;;5050005;28;20351;-73
2023/10/28 04:58:45;;;;;;;20.60;3.47;;;16.80;99.90;;;;;;5042831;28;20398;-73
2023/10/28 05:01:11;;;;;;;21.40;4.03;;;16.90;99.90;;;;;;5036480;28;20026;-73
2023/10/28 05:03:37;;;;;;;18.20;3.08;;;16.90;99.90;;;;;;5036281;28;20026;-73
2023/10/28 05:06:04;;;;;;;19.25;3.15;;;16.90;99.90;;;;;;5036074;28;20164;-73
2023/10/28 05:08:29;;;;;;;19.67;3.20;;;16.90;99.90;;;;;;5018328;28;20021;-73
2023/10/28 05:10:57;;;;;;;16.48;2.60;;;16.90;99.90;;;;;;5036464;28;20509;-73
2023/10/28 05:13:23;;;;;;;14.85;3.17;;;16.90;99.90;;;;;;5036283;28;20100;-73
2023/10/28 05:15:49;;;;;;;21.42;3.33;;;16.90;99.90;;;;;;5036125;28;20057;-74
2023/10/28 05:18:14;;;;;;;14.95;2.50;;;16.90;99.90;;;;;;5036013;28;20464;-74
2023/10/28 05:20:41;;;;;;;14.60;2.92;;;17.00;99.90;;;;;;5035907;28;20026;-75
2023/10/28 05:23:07;;;;;;;15.23;3.28;;;16.90;99.90;;;;;;5036046;28;20036;-74
2023/10/28 05:25:33;;;;;;;17.73;2.88;;;16.90;99.90;;;;;;5035809;28;20026;-78
2023/10/28 05:27:59;;;;;;;15.95;2.78;;;17.00;99.90;;;;;;5035286;28;20045;-78
2023/10/28 05:30:25;;;;;;;13.88;2.42;;;17.00;99.90;;;;;;5036011;28;20056;-75
2023/10/28 05:32:51;;;;;;;10.82;2.65;;;17.00;99.90;;;;;;5035563;28;20050;-76
2023/10/28 05:35:17;;;;;;;18.48;2.67;;;16.90;99.90;;;;;;5035765;28;20100;-74
2023/10/28 05:37:43;;;;;;;7.40;1.95;;;16.90;99.90;;;;;;5035399;28;20069;-75
2023/10/28 05:40:15;;;;;;;8.20;2.33;;;16.90;99.90;;;;;;5035684;28;20101;-74
2023/10/28 05:42:41;;;;;;;13.10;2.65;;;16.90;99.90;;;;;;5035612;28;20030;-74
2023/10/28 05:45:08;;;;;;;9.90;2.13;;;16.90;99.90;;;;;;5035917;28;20064;-74
2023/10/28 05:47:34;;;;;;;11.30;2.28;;;16.90;99.90;;;;;;5035608;28;20017;-74
2023/10/28 05:50:04;;;;;;;8.73;2.03;;;16.90;99.90;;;;;;5035138;28;20381;-74
2023/10/28 05:52:31;;;;;;;18.83;2.30;;;16.90;99.90;;;;;;5035151;28;20055;-74
2023/10/28 05:55:00;;;;;;;7.03;1.90;;;16.90;99.90;;;;;;5035549;28;20030;-76
2023/10/28 05:57:27;;;;;;;8.27;2.22;;;16.90;99.90;;;;;;5035371;28;20057;-74
2023/10/28 05:59:55;;;;;;;8.95;2.42;;;16.80;99.90;;;;;;5035233;28;20132;-74
2023/10/28 06:02:21;;;;;;;10.43;2.30;;;16.80;99.90;;;;;;5034910;28;20394;-74
2023/10/28 06:04:47;;;;;;;9.10;2.00;;;16.80;99.90;;;;;;5035139;28;20469;-74
2023/10/28 06:07:12;;;;;;;9.25;2.75;;;16.80;99.90;;;;;;5035221;28;20029;-74
2023/10/28 06:09:38;;;;;;;7.95;1.85;;;16.80;99.90;;;;;;5035177;28;20021;-75
2023/10/28 06:12:07;;;;;;;12.00;2.75;;;16.80;99.90;;;;;;5035286;28;20029;-74
2023/10/28 06:14:33;;;;;;;8.75;1.85;;;16.70;99.90;;;;;;5034955;28;20021;-75
2023/10/28 06:17:02;;;;;;;7.68;1.95;;;16.70;99.90;;;;;;5034925;28;20038;-75
2023/10/28 06:19:29;;;;;;;6.22;1.80;;;16.70;99.90;;;;;;5035143;28;20021;-76
2023/10/28 06:21:55;;;;;;;9.90;2.92;;;16.70;99.90;;;;;;5035181;28;20455;-74
2023/10/28 06:24:21;;;;;;;12.30;1.60;;;16.70;99.90;;;;;;5035137;28;20025;-74
2023/10/28 06:26:51;;;;;;;6.03;1.73;;;16.70;99.90;;;;;;5034881;28;20080;-74
2023/10/28 06:29:17;;;;;;;11.07;2.10;;;16.70;99.90;;;;;;5034773;28;20021;-72
2023/10/28 06:31:44;;;;;;;11.02;2.20;;;16.70;99.90;;;;;;5034578;28;20033;-72
2023/10/28 06:34:10;;;;;;;11.25;1.85;;;16.70;99.90;;;;;;5020477;28;20429;-72
2023/10/28 06:36:36;;;;;;;10.77;1.83;;;16.70;99.90;;;;;;5014839;28;20033;-72
2023/10/28 06:39:02;;;;;;;10.68;2.22;;;16.70;99.90;;;;;;5015042;28;20026;-72
2023/10/28 06:41:28;;;;;;;9.88;1.98;;;16.70;99.90;;;;;;5014904;28;20082;-73
2023/10/28 06:43:56;;;;;;;6.80;1.60;;;16.70;99.90;;;;;;5014819;28;20033;-73
2023/10/28 06:46:22;;;;;;;8.85;1.90;;;16.70;99.90;;;;;;5015050;28;20022;-72
2023/10/28 06:48:48;;;;;;;8.75;1.73;;;16.70;99.90;;;;;;5014731;28;20083;-74
2023/10/28 06:51:14;;;;;;;9.60;1.73;;;16.70;99.90;;;;;;5013369;28;20022;-73
2023/10/28 06:53:43;;;;;;;10.93;2.60;;;16.70;99.90;;;;;;5013664;28;20038;-75
2023/10/28 06:56:09;;;;;;;7.10;1.85;;;16.70;99.90;;;;;;4983178;28;20089;-75
2023/10/28 06:58:34;;;;;;;8.20;1.63;;;16.70;99.90;;;;;;5033084;28;20486;-75
2023/10/28 07:01:04;;;;;;;11.35;1.83;;;16.70;99.90;;;;;;5033319;28;20528;-73
2023/10/28 07:03:30;;;;;;;12.48;1.95;;;16.70;99.90;;;;;;5034417;28;20084;-74
2023/10/28 07:05:56;;;;;;;9.27;2.53;;;16.70;99.90;;;;;;5033771;28;20410;-73
2023/10/28 07:08:22;;;;;;;16.55;2.95;;;16.70;99.90;;;;;;5033590;28;20033;-74
2023/10/28 07:10:48;;;;;;;12.88;2.15;;;16.70;99.90;;;;;;5033632;28;20029;-74
2023/10/28 07:13:14;;;;;;;11.15;1.67;;;16.70;99.90;;;;;;5008028;28;20049;-74
2023/10/28 07:15:40;;;;;;;10.50;1.85;;;16.70;99.90;;;;;;5018162;28;20014;-73
2023/10/28 07:18:07;;;;;;;6.90;1.85;;;16.70;99.90;;;;;;5021653;28;20084;-74
2023/10/28 07:20:33;;;;;;;11.70;2.20;;;16.70;99.90;;;;;;5023973;28;20018;-74
2023/10/28 07:23:02;;;;;;;8.70;2.28;;;16.70;99.90;;;;;;5024538;28;20022;-74
2023/10/28 07:25:28;;;;;;;11.75;1.85;;;16.70;99.90;;;;;;5021563;28;20386;-74
2023/10/28 07:27:54;;;;;;;7.32;2.15;;;16.80;99.90;;;;;;5010258;28;20034;-74
2023/10/28 07:30:22;;;;;;;9.35;2.20;;;16.80;99.90;;;;;;5011126;28;20112;-74
2023/10/28 07:32:47;;;;;;;7.55;2.00;;;16.80;99.90;;;;;;5016431;28;20038;-73
2023/10/28 07:35:13;;;;;;;9.48;2.53;;;16.80;99.90;;;;;;5033515;28;20025;-74
2023/10/28 07:37:39;;;;;;;8.82;2.42;;;16.80;99.90;;;;;;5033178;28;20037;-74
2023/10/28 07:40:11;;;;;;;9.18;2.17;;;16.80;99.90;;;;;;5033297;28;20024;-75
2023/10/28 07:42:37;;;;;;;11.05;2.05;;;16.90;99.90;;;;;;5033136;28;20057;-75
2023/10/28 07:45:04;;;;;;;12.73;1.92;;;16.80;99.90;;;;;;5033341;28;20493;-74
2023/10/28 07:47:31;;;;;;;6.50;2.03;;;16.90;99.90;;;;;;5033228;28;20355;-74
2023/10/28 07:49:57;;;;;;;11.20;1.95;;;16.90;99.90;;;;;;5032963;28;20026;-76
2023/10/28 07:52:23;;;;;;;16.92;2.53;;;16.90;99.90;;;;;;5030677;28;20108;-74
2023/10/28 07:54:48;;;;;;;10.82;2.15;;;16.90;99.90;;;;;;5030728;28;20435;-74
2023/10/28 07:57:14;;;;;;;10.70;2.42;;;16.90;99.90;;;;;;5031084;28;20033;-74
2023/10/28 07:59:40;;;;;;;15.73;2.40;;;16.90;99.90;;;;;;5032756;28;20028;-74
2023/10/28 08:02:06;;;;;;;11.93;2.20;;;16.90;99.90;;;;;;5033274;28;20025;-74
2023/10/28 08:04:32;;;;;;;23.80;2.78;;;16.90;99.90;;;;;;5032936;28;20021;-73
2023/10/28 08:07:01;;;;;;;11.00;2.25;;;17.00;99.90;;;;;;5032772;28;20018;-74
2023/10/28 08:09:28;;;;;;;10.02;2.83;;;17.00;99.90;;;;;;5032663;28;20079;-73
2023/10/28 08:11:53;;;;;;;10.23;2.25;;;17.00;99.90;;;;;;5033147;28;20021;-80
2023/10/28 08:14:20;;;;;;;30.80;3.03;;;17.00;99.90;;;;;;5032300;28;20032;-83
2023/10/28 08:16:48;;;;;;;16.05;3.65;;;17.10;99.90;;;;;;5032613;28;20393;-75
2023/10/28 08:19:14;;;;;;;15.65;2.72;;;17.10;99.90;;;;;;5032641;28;20025;-77
2023/10/28 08:21:48;;;;;;;19.70;2.83;;;17.20;99.90;;;;;;5032506;28;20049;-80
2023/10/28 08:24:32;;;;;;;12.18;2.53;;;17.20;99.90;;;;;;5016429;28;20040;-82
2023/10/28 08:26:58;;;;;;;22.38;3.05;;;17.30;99.90;;;;;;5033047;28;20450;-81
2023/10/28 08:29:24;;;;;;;18.60;3.17;;;17.40;99.90;;;;;;5032502;28;20545;-84
2023/10/28 08:31:51;;;;;;;17.30;3.22;;;17.40;99.90;;;;;;5032540;28;20424;-80
2023/10/28 08:34:17;;;;;;;11.10;2.50;;;17.50;99.90;;;;;;5032455;28;20503;-82
2023/10/28 08:36:42;;;;;;;15.55;3.15;;;17.50;99.90;;;;;;5032073;28;20029;-82
2023/10/28 08:39:09;;;;;;;18.70;3.17;;;17.60;99.90;;;;;;5032173;28;20044;-82
2023/10/28 08:41:35;;;;;;;11.85;2.30;;;17.70;99.90;;;;;;5032546;28;20033;-83
2023/10/28 08:44:05;;;;;;;15.75;3.53;;;17.80;99.90;;;;;;5032286;28;20433;-73
2023/10/28 08:46:33;;;;;;;16.00;2.63;;;17.80;99.90;;;;;;5032362;28;20034;-74
2023/10/28 08:49:00;;;;;;;12.82;2.60;;;17.90;99.90;;;;;;5032181;28;20028;-74
2023/10/28 08:51:26;;;;;;;11.90;1.80;;;17.90;99.90;;;;;;5032150;28;20390;-74
2023/10/28 08:53:56;;;;;;;16.02;2.15;;;18.00;99.90;;;;;;5032422;28;20018;-74
2023/10/28 08:56:25;;;;;;;15.15;1.80;;;18.10;99.90;;;;;;5032076;28;20018;-74
2023/10/28 08:58:52;;;;;;;12.23;1.95;;;18.10;99.90;;;;;;5032213;28;20152;-75
2023/10/28 09:01:28;;;;;;;17.60;1.98;;;18.20;99.90;;;;;;5032348;28;20101;-73
2023/10/28 09:04:02;;;;;;;11.57;1.73;;;18.20;99.90;;;;;;5038157;28;20605;-74
2023/10/28 09:06:31;;;;;;;9.32;1.98;;;18.40;99.40;;;;;;5040686;28;20021;-74
2023/10/28 09:08:59;;;;;;;11.82;2.60;;;18.40;99.30;;;;;;5034966;28;20049;-73
2023/10/28 09:11:25;;;;;;;11.15;2.00;;;18.50;99.50;;;;;;5032291;28;20037;-73
2023/10/28 09:13:56;;;;;;;17.70;2.65;;;18.60;99.50;;;;;;5032001;28;20030;-74
2023/10/28 09:16:24;;;;;;;11.85;2.05;;;18.60;99.40;;;;;;5031981;28;20075;-73
2023/10/28 09:18:50;;;;;;;7.50;1.70;;;18.70;99.20;;;;;;5032114;28;20030;-73
2023/10/28 09:21:16;;;;;;;12.38;2.22;;;18.70;98.80;;;;;;5031969;28;20381;-73
2023/10/28 09:23:42;;;;;;;11.57;1.83;;;18.70;98.50;;;;;;5032075;28;20061;-74
2023/10/28 09:26:11;;;;;;;10.30;1.70;;;18.70;98.40;;;;;;5035378;28;20476;-73
2023/10/28 09:28:47;;;;;;;13.25;1.95;;;18.80;98.50;;;;;;5035593;28;20403;-75
2023/10/28 09:31:22;;;;;;;12.98;2.17;;;18.90;97.30;;;;;;5040354;28;20020;-75
2023/10/28 09:33:48;;;;;;;10.20;2.10;;;18.90;96.20;;;;;;5035515;28;20069;-75
2023/10/28 09:36:46;;;;;;;10.00;1.77;;;18.90;96.60;;;;;;5018057;28;20037;-75
2023/10/28 09:39:13;;;;;;;12.30;2.63;;;19.00;96.50;;;;;;5035615;28;20025;-75
2023/10/28 09:41:40;;;;;;;11.10;2.33;;;19.00;96.00;;;;;;5034051;28;20388;-75
2023/10/28 09:44:08;;;;;;;15.98;2.20;;;19.10;95.70;;;;;;5032243;28;20033;-75
2023/10/28 09:46:36;;;;;;;9.85;1.88;;;19.10;95.20;;;;;;5032873;28;20025;-75
2023/10/28 09:49:04;;;;;;;10.30;1.58;;;19.20;95.60;;;;;;5034902;28;20021;-75
2023/10/28 09:51:33;;;;;;;10.75;2.40;;;19.20;95.70;;;;;;5034537;28;20540;-74
2023/10/28 09:54:05;;;;;;;8.55;2.03;;;19.30;94.90;;;;;;5034656;28;20022;-75
2023/10/28 09:56:37;;;;;;;12.52;2.22;;;19.40;94.70;;;;;;5035176;28;20033;-75
2023/10/28 09:59:24;;;;;;;10.95;1.85;;;19.40;95.00;;;;;;5035890;28;20021;-75
2023/10/28 10:02:16;;;;;;;9.60;1.60;;;19.40;94.90;;;;;;5035201;28;20116;-74
2023/10/28 10:04:49;;;;;;;9.35;1.83;;;19.50;94.20;;;;;;5035233;28;20030;-75
2023/10/28 10:07:16;;;;;;;10.20;1.50;;;19.50;93.80;;;;;;5035507;28;20100;-75
2023/10/28 10:09:48;;;;;;;12.68;2.55;;;19.50;92.90;;;;;;5035268;28;20026;-75
2023/10/28 10:12:15;;;;;;;14.18;3.15;;;19.60;93.30;;;;;;5035005;28;20105;-74
2023/10/28 10:14:46;;;;;;;10.75;2.10;;;19.50;93.00;;;;;;5017016;28;20026;-75
2023/10/28 10:17:29;;;;;;;11.80;2.05;;;19.60;92.90;;;;;;5034679;28;20516;-75
2023/10/28 10:19:59;;;;;;;11.13;2.15;;;19.60;92.80;;;;;;5034918;28;20061;-75
2023/10/28 10:22:29;;;;;;;10.70;2.00;;;19.60;92.40;;;;;;5034587;28;20037;-74
2023/10/28 10:24:55;;;;;;;12.25;2.63;;;19.60;92.20;;;;;;5034646;28;20389;-75
2023/10/28 10:27:45;;;;;;;9.57;2.28;;;19.70;92.00;;;;;;5034564;28;20033;-75
2023/10/28 10:30:12;;;;;;;12.43;2.00;;;19.70;91.70;;;;;;5016877;28;20105;-74
2023/10/28 10:32:50;;;;;;;8.50;1.90;;;19.70;92.00;;;;;;5032475;28;20025;-75
2023/10/28 10:35:32;;;;;;;10.45;2.38;;;19.80;91.90;;;;;;5014715;28;20025;-75
2023/10/28 10:38:02;;;;;;;14.52;2.55;;;19.80;92.10;;;;;;5014294;28;20030;-74
2023/10/28 10:40:31;;;;;;;18.17;2.80;;;19.90;92.10;;;;;;5015012;28;20022;-77
2023/10/28 10:43:05;;;;;;;11.20;2.08;;;19.90;92.10;;;;;;5014638;28;20108;-77
2023/10/28 10:45:31;;;;;;;13.63;1.98;;;19.90;92.20;;;;;;4997313;28;20545;-76
2023/10/28 10:47:58;;;;;;;11.13;2.53;;;19.90;92.50;;;;;;4997160;28;20120;-76
2023/10/28 10:50:25;;;;;;;8.85;2.22;;;20.00;91.80;;;;;;4996861;28;20041;-76
2023/10/28 10:52:56;;;;;;;10.73;1.67;;;20.00;91.20;;;;;;5011920;28;20046;-75
2023/10/28 10:55:28;;;;;;;10.45;1.98;;;20.10;91.40;;;;;;5012100;28;20024;-75
2023/10/28 10:57:54;;;;;;;11.68;2.80;;;20.10;91.10;;;;;;5011332;28;20398;-75
2023/10/28 11:00:21;;;;;;;10.88;2.20;;;20.10;91.00;;;;;;5011321;28;20026;-75
2023/10/28 11:02:49;;;;;;;8.50;1.80;;;20.00;90.90;;;;;;5013074;28;20054;-75
2023/10/28 11:05:17;;;;;;;8.25;1.98;;;20.00;90.90;;;;;;5014299;28;20513;-74
2023/10/28 11:07:43;;;;;;;8.50;1.90;;;19.90;91.00;;;;;;5014326;28;20037;-75
2023/10/28 11:10:10;;;;;;;10.80;2.03;;;19.90;90.80;;;;;;5014325;28;20028;-75
2023/10/28 11:12:41;;;;;;;12.82;1.80;;;19.90;90.80;;;;;;5014344;28;20057;-75
2023/10/28 11:15:08;;;;;;;12.55;1.90;;;19.80;90.80;;;;;;5012945;28;20026;-75
2023/10/28 11:17:34;;;;;;;11.30;1.88;;;19.80;90.70;;;;;;5014046;28;20062;-76
2023/10/28 11:20:02;;;;;;;11.32;2.15;;;19.90;90.50;;;;;;5014396;28;20033;-75
2023/10/28 11:22:28;;;;;;;9.38;2.30;;;19.90;90.50;;;;;;5014057;28;20030;-75
2023/10/28 11:24:57;;;;;;;12.13;1.90;;;20.00;90.30;;;;;;5014180;28;20460;-75
2023/10/28 11:27:27;;;;;;;10.45;2.38;;;20.10;90.00;;;;;;5014016;28;20454;-75
2023/10/28 11:29:56;;;;;;;10.52;2.45;;;20.20;90.00;;;;;;5014153;28;20022;-74
2023/10/28 11:32:23;;;;;;;10.50;2.20;;;20.30;89.90;;;;;;5014317;28;20026;-75
2023/10/28 11:34:52;;;;;;;12.73;2.40;;;20.30;88.70;;;;;;5033564;28;20045;-75
2023/10/28 11:37:22;;;;;;;14.38;3.33;;;20.30;88.80;;;;;;5033523;28;20436;-75
2023/10/28 11:39:49;;;;;;;7.80;2.17;;;20.40;89.00;;;;;;5033592;28;20064;-75
2023/10/28 11:42:16;;;;;;;8.63;1.58;;;20.40;88.90;;;;;;5033663;28;20377;-75
2023/10/28 11:44:50;;;;;;;13.55;3.00;;;20.40;90.10;;;;;;5033805;28;20481;-75
2023/10/28 11:47:19;;;;;;;9.50;1.90;;;20.50;90.40;;;;;;5033292;28;20385;-75
2023/10/28 11:49:46;;;;;;;9.80;1.80;;;20.50;90.30;;;;;;5033504;28;20093;-75
2023/10/28 11:52:13;;;;;;;11.32;1.85;;;20.60;90.40;;;;;;5033514;28;20115;-75
2023/10/28 11:54:39;;;;;;;12.15;2.35;;;20.60;90.90;;;;;;5033448;28;20431;-75
2023/10/28 11:57:09;;;;;;;16.63;2.70;;;20.70;90.80;;;;;;5033625;28;20381;-75
2023/10/28 11:59:35;;;;;;;11.18;1.90;;;20.80;90.70;;;;;;5033680;28;20389;-75
2023/10/28 12:02:02;;;;;;;14.18;2.22;;;20.80;90.10;;;;;;5033283;28;20036;-74
2023/10/28 12:04:27;;;;;;;9.30;1.70;;;20.80;90.10;;;;;;5033210;28;20026;-75
2023/10/28 12:06:53;;;;;;;9.90;1.80;;;20.80;89.90;;;;;;5033317;28;20377;-75
2023/10/28 12:09:19;;;;;;;9.95;2.00;;;20.80;88.60;;;;;;5033247;28;20017;-75
2023/10/28 12:11:48;;;;;;;12.70;2.10;;;20.80;88.20;;;;;;5033403;28;20469;-75
2023/10/28 12:14:14;;;;;;;11.90;2.22;;;20.80;88.40;;;;;;5033110;28;20072;-75
2023/10/28 12:16:40;;;;;;;12.85;2.95;;;20.80;89.40;;;;;;5033105;28;20018;-75
2023/10/28 12:19:08;;;;;;;7.85;2.30;;;20.90;89.40;;;;;;5033527;28;20076;-75
2023/10/28 12:21:35;;;;;;;13.20;2.35;;;20.90;88.50;;;;;;5033242;28;20469;-75
2023/10/28 12:24:03;;;;;;;7.18;1.80;;;20.90;88.70;;;;;;5033015;28;20382;-75
2023/10/28 12:26:29;;;;;;;11.23;3.33;;;20.90;88.10;;;;;;5033069;28;20022;-75
2023/10/28 12:28:56;;;;;;;10.45;2.25;;;20.90;88.30;;;;;;5033320;28;20028;-75
2023/10/28 12:31:23;;;;;;;10.55;2.05;;;20.90;89.00;;;;;;5032899;28;20044;-75
2023/10/28 12:33:50;;;;;;;11.45;2.53;;;20.90;89.20;;;;;;5032857;28;20045;-75
2023/10/28 12:36:19;;;;;;;11.05;1.80;;;20.90;88.80;;;;;;5032775;28;20486;-75
2023/10/28 12:38:46;;;;;;;13.95;2.42;;;20.90;89.40;;;;;;5032769;28;20029;-75
2023/10/28 12:41:15;;;;;;;12.60;2.42;;;20.90;89.10;;;;;;5033062;28;20104;-75